Time;durP1;ratioP1;P1;durP2;ratioP2;P2;SDS_P1;SDS_P2;PMS_P1;PMS_P2;Temp;Humidity;BMP_temperature;BMP_pressure;BME280_temperature;BME280_humidity;BME280_pressure;Samples;Min_cycle;Max_cycle;Signal;HPM_P1;HPM_P2
2023/10/14 00:01:30;;;;;;;27.80;16.70;;;22.10;92.40;;;;;;6215479;23;20005;-81
2023/10/14 00:03:56;;;;;;;34.10;18.40;;;22.10;92.40;;;;;;6216962;23;20001;-82
2023/10/14 00:06:23;;;;;;;27.10;18.30;;;22.10;92.40;;;;;;6216329;23;20001;-82
2023/10/14 00:11:18;;;;;;;28.13;17.55;;;22.10;92.40;;;;;;6218872;23;20062;-82
2023/10/14 00:13:52;;;;;;;27.85;19.10;;;22.10;92.30;;;;;;6216652;23;20001;-83
2023/10/14 00:16:41;;;;;;;29.77;19.40;;;22.00;92.30;;;;;;6216611;23;20398;-81
2023/10/14 00:19:09;;;;;;;30.42;20.15;;;22.00;92.30;;;;;;6215433;23;20076;-82
2023/10/14 00:21:36;;;;;;;30.55;21.05;;;22.00;92.30;;;;;;6216263;23;19996;-82
2023/10/14 00:24:06;;;;;;;28.88;18.58;;;22.00;92.30;;;;;;6215129;23;20008;-79
2023/10/14 00:26:32;;;;;;;33.97;20.40;;;22.00;92.40;;;;;;6215704;23;19996;-77
2023/10/14 00:29:32;;;;;;;31.85;21.15;;;22.00;92.40;;;;;;6216760;23;19997;-79
2023/10/14 00:31:51;;;;;;;32.97;21.77;;;21.90;92.30;;;;;;6211393;23;20406;-79
2023/10/14 00:34:22;;;;;;;34.53;22.50;;;22.00;92.40;;;;;;6216336;23;20009;-79
2023/10/14 00:36:47;;;;;;;32.58;23.00;;;21.90;92.40;;;;;;6189215;23;20051;-80
2023/10/14 00:39:16;;;;;;;34.72;23.58;;;21.90;92.40;;;;;;6216432;23;20000;-80
2023/10/14 00:41:43;;;;;;;37.55;23.13;;;22.00;92.40;;;;;;6216187;23;20079;-79
2023/10/14 00:44:10;;;;;;;36.92;22.33;;;21.90;92.40;;;;;;6215354;23;20005;-80
2023/10/14 00:46:42;;;;;;;34.42;22.50;;;22.00;92.40;;;;;;6214265;23;20011;-80
2023/10/14 00:49:11;;;;;;;30.60;22.08;;;21.90;92.30;;;;;;6215999;23;20001;-80
2023/10/14 00:51:42;;;;;;;35.40;22.67;;;21.90;92.30;;;;;;6215735;23;20637;-80
2023/10/14 00:54:18;;;;;;;34.42;23.05;;;21.90;92.40;;;;;;6215712;23;20009;-80
2023/10/14 00:56:46;;;;;;;37.90;24.92;;;21.90;92.40;;;;;;6215835;23;19997;-80
2023/10/14 00:59:12;;;;;;;38.55;25.73;;;21.90;92.40;;;;;;6216005;23;20284;-80
2023/10/14 01:04:36;;;;;;;38.63;22.80;;;21.90;92.40;;;;;;6149655;23;20009;-80
2023/10/14 01:09:41;;;;;;;36.28;25.52;;;21.90;92.40;;;;;;6216038;23;20296;-80
2023/10/14 01:12:27;;;;;;;36.78;24.65;;;21.90;92.40;;;;;;6216308;23;20606;-79
2023/10/14 01:14:58;;;;;;;35.30;25.05;;;21.90;92.40;;;;;;6215274;23;20520;-80
2023/10/14 01:17:27;;;;;;;37.83;24.23;;;21.90;92.40;;;;;;6215553;23;20001;-79
2023/10/14 01:19:54;;;;;;;41.63;25.83;;;21.90;92.50;;;;;;6215725;23;19997;-79
2023/10/14 01:22:20;;;;;;;37.55;25.92;;;21.90;92.50;;;;;;6215588;23;20005;-79
2023/10/14 01:24:46;;;;;;;40.67;26.45;;;21.90;92.50;;;;;;6215214;23;20001;-79
2023/10/14 01:27:13;;;;;;;41.67;26.80;;;21.90;92.50;;;;;;6188246;23;20005;-79
2023/10/14 01:29:40;;;;;;;39.35;25.83;;;21.90;92.60;;;;;;6215487;23;19996;-80
2023/10/14 01:32:39;;;;;;;38.03;26.02;;;21.80;92.60;;;;;;6188925;23;20099;-80
2023/10/14 01:35:31;;;;;;;39.78;27.55;;;21.80;92.60;;;;;;6214949;23;20028;-78
2023/10/14 01:37:53;;;;;;;41.45;28.25;;;21.80;92.70;;;;;;6214892;23;20040;-78
2023/10/14 01:43:10;;;;;;;39.67;26.52;;;21.70;92.80;;;;;;6216219;23;20009;-78
2023/10/14 01:45:40;;;;;;;44.17;26.80;;;21.70;92.80;;;;;;6214228;23;20027;-78
2023/10/14 01:50:38;;;;;;;44.35;26.30;;;21.70;92.80;;;;;;6218350;23;19985;-78
2023/10/14 01:53:11;;;;;;;39.67;26.75;;;21.60;92.80;;;;;;6215232;23;20005;-78
2023/10/14 01:55:42;;;;;;;40.17;27.10;;;21.60;92.80;;;;;;6214756;23;20005;-78
2023/10/14 02:03:44;;;;;;;42.60;27.98;;;21.70;92.80;;;;;;6217311;23;20043;-78
2023/10/14 02:06:17;;;;;;;41.90;27.95;;;21.60;92.90;;;;;;6214596;23;20005;-77
2023/10/14 02:08:47;;;;;;;41.55;28.30;;;21.60;92.90;;;;;;6215150;23;20000;-78
2023/10/14 02:11:16;;;;;;;47.30;30.45;;;21.60;92.90;;;;;;6215491;23;20004;-80
2023/10/14 02:13:43;;;;;;;48.30;29.95;;;21.60;92.90;;;;;;6215852;23;19996;-79
2023/10/14 02:16:09;;;;;;;46.38;29.55;;;21.60;93.00;;;;;;6215129;23;20416;-80
2023/10/14 02:18:38;;;;;;;49.67;31.58;;;21.60;93.00;;;;;;6214623;23;20035;-78
2023/10/14 02:21:06;;;;;;;44.30;29.37;;;21.60;93.00;;;;;;6214909;23;20028;-79
2023/10/14 02:23:47;;;;;;;46.00;30.00;;;21.60;93.00;;;;;;6214216;23;20004;-79
2023/10/14 02:26:24;;;;;;;;;;;21.50;93.00;;;;;;6215212;23;20334;-78
2023/10/14 02:28:52;;;;;;;40.65;27.55;;;21.50;93.10;;;;;;6188190;23;19922;-78
2023/10/14 02:33:57;;;;;;;48.08;29.15;;;21.50;93.20;;;;;;6215098;23;20015;-79
2023/10/14 02:36:29;;;;;;;45.58;28.40;;;21.50;93.20;;;;;;6214778;23;20031;-79
2023/10/14 02:38:56;;;;;;;46.83;30.90;;;21.40;93.20;;;;;;6215116;23;20054;-79
2023/10/14 02:41:27;;;;;;;43.00;28.60;;;21.50;93.20;;;;;;6214488;23;20005;-77
2023/10/14 02:46:45;;;;;;;49.40;30.52;;;21.40;93.20;;;;;;6214370;23;20813;-77
2023/10/14 02:49:15;;;;;;;48.92;30.85;;;21.40;93.30;;;;;;6214113;23;20024;-77
2023/10/14 02:51:44;;;;;;;44.87;29.63;;;21.40;93.30;;;;;;6214382;23;20071;-77
2023/10/14 02:54:26;;;;;;;45.33;29.63;;;21.40;93.40;;;;;;6214126;23;20055;-77
2023/10/14 03:02:24;;;;;;;42.35;28.15;;;21.30;93.40;;;;;;6215254;23;20009;-78
2023/10/14 03:05:08;;;;;;;45.45;29.83;;;21.30;93.50;;;;;;6214036;23;20453;-78
2023/10/14 03:07:44;;;;;;;44.60;30.05;;;21.30;93.40;;;;;;6214662;23;20024;-79
2023/10/14 03:10:19;;;;;;;47.15;30.40;;;21.30;93.40;;;;;;6190646;23;20004;-80
2023/10/14 03:12:49;;;;;;;46.25;29.92;;;21.30;93.40;;;;;;6214215;23;20415;-81
2023/10/14 03:15:19;;;;;;;44.70;30.83;;;21.20;93.50;;;;;;6188371;23;20004;-80
2023/10/14 03:17:56;;;;;;;43.83;30.33;;;21.20;93.60;;;;;;6215197;23;20005;-80
2023/10/14 03:22:55;;;;;;;50.15;31.20;;;21.20;93.50;;;;;;6216006;23;20016;-80
2023/10/14 03:25:24;;;;;;;44.67;29.98;;;21.20;93.50;;;;;;6214311;23;20012;-81
2023/10/14 03:28:00;;;;;;;49.45;30.45;;;21.20;93.50;;;;;;6214691;23;20059;-80
2023/10/14 03:30:27;;;;;;;46.85;31.13;;;21.20;93.50;;;;;;6215322;23;20513;-80
2023/10/14 03:32:52;;;;;;;56.65;32.78;;;21.10;93.60;;;;;;6214616;23;20001;-80
2023/10/14 03:35:23;;;;;;;49.40;30.95;;;21.10;93.60;;;;;;6214594;23;20007;-79
2023/10/14 03:37:59;;;;;;;51.10;33.20;;;21.10;93.70;;;;;;6190305;23;20009;-78
2023/10/14 03:43:07;;;;;;;48.13;31.70;;;21.10;93.70;;;;;;6217870;23;20048;-78
2023/10/14 03:45:33;;;;;;;51.17;32.80;;;21.10;93.70;;;;;;6216448;23;20012;-78
2023/10/14 03:48:00;;;;;;;52.20;30.77;;;21.10;93.70;;;;;;6215633;23;20008;-76
2023/10/14 03:50:26;;;;;;;51.60;31.58;;;21.00;93.70;;;;;;6216475;23;20008;-79
2023/10/14 03:52:53;;;;;;;50.58;33.00;;;21.00;93.80;;;;;;6216066;23;20005;-79
2023/10/14 03:55:26;;;;;;;59.47;33.67;;;20.90;93.90;;;;;;6216036;23;20005;-79
2023/10/14 03:58:04;;;;;;;52.58;31.67;;;20.90;94.00;;;;;;6215675;23;20008;-78
2023/10/14 04:00:39;;;;;;;50.75;31.90;;;20.90;94.00;;;;;;6216029;23;20001;-78
2023/10/14 04:03:11;;;;;;;53.85;32.92;;;20.90;94.00;;;;;;6214712;23;20420;-78
2023/10/14 04:05:41;;;;;;;58.42;34.10;;;20.90;94.00;;;;;;6215953;23;20092;-78
2023/10/14 04:08:08;;;;;;;49.72;32.40;;;20.90;94.00;;;;;;6216348;23;20002;-78
2023/10/14 04:10:38;;;;;;;55.17;34.00;;;20.90;93.90;;;;;;6216163;23;20055;-77
2023/10/14 04:13:12;;;;;;;50.55;32.45;;;20.90;94.00;;;;;;6215463;23;20364;-78
2023/10/14 04:15:52;;;;;;;53.42;33.60;;;20.90;94.00;;;;;;6215693;23;20095;-78
2023/10/14 04:18:24;;;;;;;;;;;20.90;94.00;;;;;;6216263;23;20008;-78
2023/10/14 04:21:13;;;;;;;52.55;32.85;;;20.90;94.00;;;;;;6216337;23;19904;-77
2023/10/14 04:26:23;;;;;;;53.95;33.03;;;20.90;94.10;;;;;;6215976;23;20032;-80
2023/10/14 04:28:58;;;;;;;56.85;34.38;;;20.90;94.00;;;;;;6216265;23;20001;-80
2023/10/14 04:31:38;;;;;;;53.83;32.20;;;20.80;94.00;;;;;;6216372;23;20007;-80
2023/10/14 04:34:05;;;;;;;48.78;32.95;;;20.80;94.10;;;;;;6215977;23;20072;-79
2023/10/14 04:39:13;;;;;;;59.95;35.38;;;20.80;94.20;;;;;;6218521;23;20016;-82
2023/10/14 04:41:55;;;;;;;55.63;34.60;;;20.80;94.20;;;;;;6215946;23;20000;-80
2023/10/14 04:44:34;;;;;;;58.40;35.58;;;20.80;94.10;;;;;;6215994;23;20059;-80
2023/10/14 04:47:01;;;;;;;52.10;33.22;;;20.80;94.20;;;;;;6188710;23;20016;-79
2023/10/14 04:49:51;;;;;;;49.75;33.35;;;20.80;94.20;;;;;;6216067;23;20003;-79
2023/10/14 04:52:18;;;;;;;46.08;29.02;;;20.80;94.20;;;;;;6215452;23;20039;-79
2023/10/14 04:55:25;;;;;;;47.30;30.25;;;20.70;94.20;;;;;;6215111;23;20047;-78
2023/10/14 04:57:40;;;;;;;45.75;30.92;;;20.70;94.20;;;;;;6215074;23;20445;-80
2023/10/14 05:00:08;;;;;;;45.78;32.20;;;20.70;94.20;;;;;;6215996;23;20000;-80
2023/10/14 05:02:38;;;;;;;48.00;30.88;;;20.60;94.20;;;;;;6215264;23;20000;-79
2023/10/14 05:05:08;;;;;;;47.20;31.23;;;20.70;94.20;;;;;;6215822;23;20016;-79
2023/10/14 05:07:35;;;;;;;57.63;31.03;;;20.70;94.20;;;;;;6215534;23;20000;-78
2023/10/14 05:10:09;;;;;;;46.10;29.15;;;20.60;94.10;;;;;;6214939;23;19996;-78
2023/10/14 05:12:40;;;;;;;56.67;33.10;;;20.60;94.10;;;;;;6214673;23;20055;-78
2023/10/14 05:15:19;;;;;;;55.88;32.70;;;20.50;94.10;;;;;;6215001;23;20039;-76
2023/10/14 05:17:49;;;;;;;43.33;27.38;;;20.30;94.10;;;;;;6215073;23;20015;-77
2023/10/14 05:23:10;;;;;;;41.35;23.90;;;20.10;94.30;;;;;;6179840;23;20331;-79
2023/10/14 05:25:39;;;;;;;38.67;26.63;;;20.00;94.70;;;;;;6214188;23;20054;-79
2023/10/14 05:28:06;;;;;;;48.35;29.60;;;19.90;94.50;;;;;;6214473;23;20027;-81
2023/10/14 05:30:34;;;;;;;58.30;32.38;;;19.90;94.70;;;;;;6214796;23;20008;-80
2023/10/14 05:33:13;;;;;;;56.92;32.53;;;19.90;94.70;;;;;;6187940;23;20387;-80
2023/10/14 05:35:40;;;;;;;53.95;33.83;;;19.90;94.80;;;;;;6215166;23;20493;-80
2023/10/14 05:38:10;;;;;;;53.13;32.63;;;19.80;94.80;;;;;;6215169;23;20001;-80
2023/10/14 05:40:38;;;;;;;61.07;34.47;;;19.80;94.90;;;;;;6215488;23;20005;-82
2023/10/14 05:43:06;;;;;;;50.75;32.67;;;19.80;95.00;;;;;;6215193;23;20004;-83
2023/10/14 05:45:34;;;;;;;54.50;33.38;;;19.80;95.00;;;;;;6213872;23;20001;-83
2023/10/14 05:48:03;;;;;;;57.33;33.08;;;19.90;95.10;;;;;;6215281;23;20000;-82
2023/10/14 05:50:29;;;;;;;50.38;33.33;;;19.80;95.10;;;;;;6214552;23;20030;-83
2023/10/14 05:52:55;;;;;;;52.92;33.45;;;19.80;95.10;;;;;;6214613;23;20001;-77
2023/10/14 05:55:21;;;;;;;44.08;30.65;;;19.70;95.30;;;;;;6214280;23;20004;-77
2023/10/14 05:57:47;;;;;;;47.88;31.55;;;19.70;95.50;;;;;;6188206;23;20365;-87
2023/10/14 06:00:21;;;;;;;46.80;33.10;;;19.70;95.70;;;;;;6214012;23;20035;-80
2023/10/14 06:02:51;;;;;;;44.28;31.58;;;19.70;95.80;;;;;;6214828;23;20005;-79
2023/10/14 06:05:25;;;;;;;47.40;30.67;;;19.70;95.70;;;;;;6215131;23;20335;-78
2023/10/14 06:07:59;;;;;;;49.85;32.63;;;19.70;95.70;;;;;;6214185;23;20023;-78
2023/10/14 06:10:36;;;;;;;48.03;31.67;;;19.60;95.70;;;;;;6215326;23;20001;-78
2023/10/14 06:13:05;;;;;;;49.50;32.30;;;19.60;95.80;;;;;;6215178;23;20331;-79
2023/10/14 06:15:36;;;;;;;54.17;33.78;;;19.60;95.90;;;;;;6214943;23;20040;-78
2023/10/14 06:18:04;;;;;;;57.40;33.92;;;19.60;95.90;;;;;;6214233;23;20011;-77
2023/10/14 06:20:32;;;;;;;54.20;33.38;;;19.70;95.90;;;;;;6188383;23;20004;-79
2023/10/14 06:22:59;;;;;;;52.15;33.78;;;19.70;95.90;;;;;;6214729;23;20051;-81
2023/10/14 06:25:26;;;;;;;72.28;43.63;;;19.70;95.90;;;;;;6214344;23;20004;-77
2023/10/14 06:27:53;;;;;;;62.03;38.45;;;19.70;96.00;;;;;;6214575;23;19996;-77
2023/10/14 06:30:20;;;;;;;57.78;35.10;;;19.70;96.00;;;;;;6214027;23;20299;-77
2023/10/14 06:32:52;;;;;;;86.43;39.47;;;19.60;96.10;;;;;;6215346;23;20001;-77
2023/10/14 06:35:20;;;;;;;56.38;34.38;;;19.50;96.10;;;;;;6187543;23;20020;-77
2023/10/14 06:37:46;;;;;;;41.28;28.20;;;19.40;96.10;;;;;;6188266;23;20008;-77
2023/10/14 06:40:14;;;;;;;43.17;28.63;;;19.40;96.20;;;;;;6214308;23;20076;-76
2023/10/14 06:42:43;;;;;;;32.00;24.80;;;19.30;96.30;;;;;;6214567;23;20047;-85
2023/10/14 06:45:13;;;;;;;34.60;25.80;;;19.30;96.50;;;;;;6214190;23;20000;-80
2023/10/14 06:47:45;;;;;;;32.70;24.73;;;19.20;96.50;;;;;;6214482;23;20270;-78
2023/10/14 06:50:12;;;;;;;30.00;23.67;;;19.20;96.40;;;;;;6215235;23;20001;-87
2023/10/14 06:52:38;;;;;;;36.65;25.50;;;19.20;96.40;;;;;;6215776;23;20005;-86
2023/10/14 06:55:07;;;;;;;38.65;24.60;;;19.20;96.60;;;;;;6216287;23;20011;-86
2023/10/14 06:57:35;;;;;;;28.98;22.00;;;19.30;96.60;;;;;;6216287;23;20001;-86
2023/10/14 07:00:08;;;;;;;33.42;23.85;;;19.30;96.60;;;;;;6189586;23;20036;-87
2023/10/14 07:02:35;;;;;;;30.90;23.15;;;19.30;96.60;;;;;;6216464;23;20001;-86
2023/10/14 07:05:02;;;;;;;35.45;24.35;;;19.40;96.60;;;;;;6216234;23;20012;-86
2023/10/14 07:07:27;;;;;;;35.15;26.02;;;19.50;96.60;;;;;;6216392;23;20005;-86
2023/10/14 07:09:54;;;;;;;26.38;21.73;;;19.50;96.30;;;;;;6189770;23;20028;-86
2023/10/14 07:12:21;;;;;;;31.60;22.35;;;19.50;96.30;;;;;;6215325;23;20055;-86
2023/10/14 07:14:47;;;;;;;33.40;24.00;;;19.60;96.30;;;;;;6215938;23;20005;-86
2023/10/14 07:17:25;;;;;;;31.00;24.25;;;19.60;96.30;;;;;;6215831;23;20466;-85
2023/10/14 07:19:50;;;;;;;37.92;27.88;;;19.60;96.30;;;;;;6216348;23;20004;-86
2023/10/14 07:22:20;;;;;;;31.17;23.73;;;19.60;96.20;;;;;;6216447;23;20055;-86
2023/10/14 07:24:47;;;;;;;31.63;23.35;;;19.60;96.30;;;;;;6215109;23;20012;-79
2023/10/14 07:27:14;;;;;;;33.25;24.45;;;19.60;96.30;;;;;;6188252;23;20001;-80
2023/10/14 07:29:39;;;;;;;34.08;24.17;;;19.70;96.30;;;;;;6213799;23;20381;-79
2023/10/14 07:32:05;;;;;;;33.75;24.85;;;19.80;96.40;;;;;;6213193;23;20463;-79
2023/10/14 07:34:31;;;;;;;37.50;25.65;;;19.90;96.40;;;;;;6213107;23;20043;-79
2023/10/14 07:36:57;;;;;;;36.22;25.80;;;20.00;96.30;;;;;;6213376;23;20005;-86
2023/10/14 07:39:28;;;;;;;37.05;26.98;;;20.10;96.10;;;;;;6214233;23;20407;-86
2023/10/14 07:41:55;;;;;;;33.65;25.00;;;20.30;96.00;;;;;;6188697;23;20004;-85
2023/10/14 07:44:22;;;;;;;35.50;25.67;;;20.40;95.80;;;;;;6214179;23;20447;-85
2023/10/14 07:46:49;;;;;;;31.90;23.33;;;20.40;95.60;;;;;;6214192;23;20491;-86
2023/10/14 07:49:15;;;;;;;33.65;25.75;;;20.50;95.50;;;;;;6187965;23;20084;-86
2023/10/14 07:51:42;;;;;;;30.15;22.70;;;20.50;95.40;;;;;;6215007;23;20078;-78
2023/10/14 07:54:08;;;;;;;32.38;24.42;;;20.60;95.50;;;;;;6213252;23;20001;-77
2023/10/14 07:56:34;;;;;;;30.35;24.30;;;20.60;95.50;;;;;;6213621;23;20004;-80
2023/10/14 07:59:01;;;;;;;30.75;23.70;;;20.70;95.40;;;;;;6187423;23;20009;-83
2023/10/14 08:01:27;;;;;;;30.42;23.17;;;20.80;95.40;;;;;;6215079;23;20004;-85
2023/10/14 08:03:56;;;;;;;31.60;24.60;;;20.90;95.20;;;;;;6214953;23;20488;-86
2023/10/14 08:06:22;;;;;;;35.05;25.00;;;21.00;95.00;;;;;;6215826;23;20392;-86
2023/10/14 08:08:48;;;;;;;30.40;23.65;;;21.00;94.80;;;;;;6216308;23;20005;-86
2023/10/14 08:11:14;;;;;;;30.08;23.70;;;21.10;94.90;;;;;;6215359;23;20073;-85
2023/10/14 08:13:42;;;;;;;31.58;23.63;;;21.20;94.80;;;;;;6211662;23;20008;-85
2023/10/14 08:16:08;;;;;;;38.30;25.80;;;21.10;94.60;;;;;;6214450;23;20005;-85
2023/10/14 08:18:34;;;;;;;31.42;24.50;;;21.20;94.70;;;;;;6211797;23;20079;-81
2023/10/14 08:21:00;;;;;;;30.65;22.88;;;21.20;94.70;;;;;;6213770;23;20501;-86
2023/10/14 08:23:30;;;;;;;31.27;24.55;;;21.30;94.70;;;;;;6211716;23;20001;-87
2023/10/14 08:25:57;;;;;;;34.63;26.10;;;21.30;94.70;;;;;;6216105;23;20331;-87
2023/10/14 08:28:27;;;;;;;35.47;25.77;;;21.50;94.70;;;;;;6189407;23;20001;-86
2023/10/14 08:30:55;;;;;;;33.50;25.33;;;21.60;94.50;;;;;;6215418;23;20015;-86
2023/10/14 08:33:23;;;;;;;37.80;26.50;;;21.70;94.40;;;;;;6216054;23;20415;-89
2023/10/14 08:35:50;;;;;;;41.70;27.75;;;21.80;94.30;;;;;;6216834;23;20043;-86
2023/10/14 08:38:22;;;;;;;42.33;30.52;;;21.90;94.30;;;;;;6216256;23;20374;-86
2023/10/14 08:40:54;;;;;;;40.72;29.33;;;22.00;94.00;;;;;;6214181;23;20300;-86
2023/10/14 08:43:23;;;;;;;41.40;30.17;;;22.10;93.90;;;;;;6190159;23;20011;-85
2023/10/14 08:45:48;;;;;;;41.97;29.75;;;22.10;93.90;;;;;;6215372;23;20016;-85
2023/10/14 08:48:23;;;;;;;37.80;27.52;;;22.10;93.80;;;;;;6215585;23;20028;-86
2023/10/14 08:50:51;;;;;;;43.22;29.40;;;22.10;93.80;;;;;;6213763;23;20074;-84
2023/10/14 08:53:17;;;;;;;34.92;25.52;;;22.10;94.00;;;;;;6215226;23;20420;-85
2023/10/14 08:55:49;;;;;;;35.08;26.33;;;22.10;94.00;;;;;;6217619;23;20067;-86
2023/10/14 08:58:15;;;;;;;35.63;26.02;;;22.20;94.00;;;;;;6218012;23;20445;-86
2023/10/14 09:00:43;;;;;;;37.35;26.90;;;22.20;93.90;;;;;;6216055;23;20028;-79
2023/10/14 09:03:10;;;;;;;41.50;28.17;;;22.30;93.90;;;;;;6216046;23;20005;-80
2023/10/14 09:05:40;;;;;;;41.58;28.77;;;22.30;93.80;;;;;;6189633;23;20091;-79
2023/10/14 09:08:11;;;;;;;36.15;25.90;;;22.40;93.70;;;;;;6189278;23;20000;-80
2023/10/14 09:10:37;;;;;;;36.75;26.20;;;22.40;93.70;;;;;;6215640;23;20001;-80
2023/10/14 09:13:06;;;;;;;49.40;32.47;;;22.40;93.70;;;;;;6215890;23;20062;-80
2023/10/14 09:15:40;;;;;;;53.72;35.30;;;22.50;93.50;;;;;;6216115;23;20001;-80
2023/10/14 09:18:21;;;;;;;48.78;34.10;;;22.50;93.30;;;;;;6216081;23;20001;-81
2023/10/14 09:20:53;;;;;;;39.42;26.48;;;22.40;93.30;;;;;;6215594;23;20001;-81
2023/10/14 09:26:02;;;;;;;35.72;26.42;;;22.50;93.20;;;;;;6217504;23;20035;-80
2023/10/14 09:28:33;;;;;;;48.67;32.38;;;22.50;93.30;;;;;;6215676;23;19997;-80
2023/10/14 09:31:00;;;;;;;45.78;30.48;;;22.60;93.00;;;;;;6215391;23;19997;-81
2023/10/14 09:33:27;;;;;;;41.63;27.58;;;22.60;93.20;;;;;;6215567;23;20008;-80
2023/10/14 09:35:58;;;;;;;39.38;26.08;;;22.70;93.30;;;;;;6215219;23;20007;-80
2023/10/14 09:38:24;;;;;;;37.58;25.30;;;22.90;93.00;;;;;;6214900;23;20004;-83
2023/10/14 09:41:01;;;;;;;38.20;25.52;;;23.10;92.60;;;;;;6187763;23;20607;-77
2023/10/14 09:43:29;;;;;;;39.97;27.50;;;23.30;92.60;;;;;;6214645;23;20054;-78
2023/10/14 09:45:59;;;;;;;39.58;28.08;;;23.50;92.30;;;;;;6214657;23;20012;-79
2023/10/14 09:48:29;;;;;;;;;;;23.70;92.00;;;;;;6214785;23;20054;-83
2023/10/14 09:50:56;;;;;;;33.40;24.52;;;23.80;91.60;;;;;;6214564;23;19950;-78
2023/10/14 09:53:29;;;;;;;37.28;27.15;;;23.90;91.50;;;;;;6214136;23;20008;-77
2023/10/14 09:55:57;;;;;;;35.55;24.45;;;24.00;91.10;;;;;;6215151;23;20000;-78
2023/10/14 09:58:26;;;;;;;36.47;26.75;;;24.10;91.30;;;;;;6215311;23;20005;-80
2023/10/14 10:00:52;;;;;;;31.20;23.45;;;24.30;91.20;;;;;;6214957;23;20075;-80
2023/10/14 10:03:21;;;;;;;35.15;25.88;;;24.50;91.20;;;;;;6215112;23;20075;-81
2023/10/14 10:06:10;;;;;;;34.50;23.27;;;24.70;90.80;;;;;;6213336;23;20015;-81
2023/10/14 10:08:48;;;;;;;33.92;24.00;;;24.90;90.40;;;;;;6214670;23;20384;-80
2023/10/14 10:11:23;;;;;;;33.00;24.15;;;25.10;90.20;;;;;;6214874;23;20494;-81
2023/10/14 10:13:53;;;;;;;28.20;21.25;;;25.20;89.80;;;;;;6188877;23;20005;-85
2023/10/14 10:16:20;;;;;;;32.72;24.10;;;25.40;89.20;;;;;;6215766;23;20419;-85
2023/10/14 10:18:56;;;;;;;31.55;23.73;;;25.50;88.90;;;;;;6215997;23;20419;-81
2023/10/14 10:21:31;;;;;;;36.88;23.83;;;25.70;88.40;;;;;;6214617;23;20054;-80
2023/10/14 10:24:23;;;;;;;30.23;22.48;;;25.80;87.10;;;;;;6211682;23;20012;-80
2023/10/14 10:27:06;;;;;;;36.47;25.02;;;25.90;87.30;;;;;;6200716;23;20016;-81
2023/10/14 10:29:33;;;;;;;35.30;26.13;;;26.00;86.60;;;;;;6216128;23;20004;-84
2023/10/14 10:32:06;;;;;;;32.03;23.33;;;26.10;86.10;;;;;;6215044;23;20004;-80
2023/10/14 10:34:33;;;;;;;40.90;27.15;;;26.20;86.20;;;;;;6213450;23;20136;-81
2023/10/14 10:37:03;;;;;;;37.15;24.10;;;26.20;85.70;;;;;;6214562;23;20004;-88
2023/10/14 10:39:34;;;;;;;34.35;23.98;;;26.30;85.40;;;;;;6215853;23;20000;-87
2023/10/14 10:42:00;;;;;;;;;;;26.40;85.80;;;;;;6188916;23;20005;-83
2023/10/14 10:44:29;;;;;;;33.22;23.30;;;26.50;85.00;;;;;;6215470;23;19938;-83
2023/10/14 10:46:56;;;;;;;32.60;22.08;;;26.50;84.60;;;;;;6214315;23;20317;-84
2023/10/14 10:49:54;;;;;;;28.60;21.65;;;26.60;83.60;;;;;;6214616;23;20490;-86
2023/10/14 10:52:21;;;;;;;30.30;22.30;;;26.70;84.00;;;;;;6176743;23;20008;-81
2023/10/14 10:54:47;;;;;;;28.42;20.50;;;26.80;83.70;;;;;;6213944;23;20054;-81
2023/10/14 10:57:13;;;;;;;27.58;20.60;;;27.00;83.50;;;;;;6214614;23;20309;-81
2023/10/14 10:59:40;;;;;;;28.13;20.35;;;27.20;83.00;;;;;;6213600;23;20084;-81
2023/10/14 11:02:10;;;;;;;27.65;19.27;;;27.40;82.80;;;;;;6214669;23;20035;-80
2023/10/14 11:04:36;;;;;;;;;;;27.60;82.20;;;;;;6215326;23;20016;-81
2023/10/14 11:07:03;;;;;;;31.70;22.23;;;27.70;80.50;;;;;;6214644;23;20625;-80
2023/10/14 11:09:39;;;;;;;23.85;18.20;;;27.80;81.40;;;;;;6187619;23;20342;-79
2023/10/14 11:12:11;;;;;;;26.42;19.00;;;27.90;81.30;;;;;;6213844;23;20012;-79
2023/10/14 11:14:38;;;;;;;32.38;22.30;;;28.00;80.40;;;;;;6214580;23;20001;-82
2023/10/14 11:17:04;;;;;;;32.75;22.98;;;28.10;80.00;;;;;;6215183;23;20003;-79
2023/10/14 11:19:32;;;;;;;29.17;21.73;;;28.10;79.40;;;;;;6209841;23;20011;-80
2023/10/14 11:21:59;;;;;;;25.27;19.20;;;28.20;79.90;;;;;;6187648;23;20008;-80
2023/10/14 11:24:26;;;;;;;25.13;19.90;;;28.30;79.90;;;;;;6213604;23;20011;-84
2023/10/14 11:26:53;;;;;;;31.77;22.23;;;28.50;79.50;;;;;;6215123;23;20001;-85
2023/10/14 11:29:28;;;;;;;30.20;20.60;;;28.60;79.10;;;;;;6186672;23;20032;-85
2023/10/14 11:31:58;;;;;;;28.92;20.27;;;28.70;78.80;;;;;;6215006;23;20088;-79
2023/10/14 11:34:24;;;;;;;40.63;25.58;;;28.90;78.50;;;;;;6213607;23;20028;-80
2023/10/14 11:36:50;;;;;;;32.35;19.98;;;29.00;75.70;;;;;;6208890;23;20008;-78
2023/10/14 11:39:18;;;;;;;31.88;21.77;;;29.00;77.10;;;;;;6213146;23;20068;-80
2023/10/14 11:41:45;;;;;;;27.92;19.35;;;29.10;76.90;;;;;;6213476;23;20008;-83
2023/10/14 11:44:17;;;;;;;26.83;16.83;;;29.10;76.40;;;;;;6214480;23;20040;-82
2023/10/14 11:46:43;;;;;;;28.00;18.45;;;29.20;75.60;;;;;;6183282;23;20033;-84
2023/10/14 11:49:13;;;;;;;22.23;17.33;;;29.20;75.50;;;;;;6184317;23;20001;-80
2023/10/14 11:51:44;;;;;;;22.92;14.82;;;29.40;74.80;;;;;;6182984;23;20001;-84
2023/10/14 11:54:14;;;;;;;20.23;14.82;;;29.40;74.10;;;;;;6183319;23;20136;-83
2023/10/14 11:56:41;;;;;;;22.90;14.93;;;29.50;74.20;;;;;;6183929;23;20416;-83
2023/10/14 12:07:40;;;;;;;21.70;15.90;;;29.70;73.40;;;;;;6212145;23;20158;-79
2023/10/14 12:10:06;;;;;;;27.35;18.98;;;29.80;72.80;;;;;;6213963;23;20051;-79
2023/10/14 12:12:32;;;;;;;24.17;17.50;;;29.80;72.60;;;;;;6216706;23;20005;-78
2023/10/14 12:14:59;;;;;;;27.05;15.73;;;29.80;73.00;;;;;;6217053;23;20338;-84
2023/10/14 12:17:25;;;;;;;25.48;16.45;;;29.80;72.80;;;;;;6241316;23;20008;-85
2023/10/14 12:19:51;;;;;;;23.90;17.17;;;29.80;72.50;;;;;;6214971;23;20308;-84
2023/10/14 12:22:17;;;;;;;17.00;13.32;;;29.80;72.10;;;;;;6216139;23;20542;-84
2023/10/14 12:24:43;;;;;;;25.58;16.20;;;29.80;72.50;;;;;;6216848;23;20041;-85
2023/10/14 12:27:14;;;;;;;19.85;14.15;;;29.80;71.50;;;;;;6217228;23;20023;-84
2023/10/14 12:29:41;;;;;;;17.40;12.10;;;29.80;71.70;;;;;;6214841;23;20374;-84
2023/10/14 12:32:14;;;;;;;18.60;13.40;;;29.80;71.90;;;;;;6217679;23;20066;-85
2023/10/14 12:34:43;;;;;;;19.38;13.77;;;29.70;71.50;;;;;;6215469;23;20048;-85
2023/10/14 12:37:18;;;;;;;17.23;12.15;;;29.60;71.30;;;;;;6216782;23;20008;-84
2023/10/14 12:40:04;;;;;;;19.98;13.20;;;29.50;71.20;;;;;;6216137;23;20050;-85
2023/10/14 12:42:45;;;;;;;16.30;12.50;;;29.50;70.90;;;;;;6217630;23;20001;-87
2023/10/14 12:45:13;;;;;;;15.70;11.07;;;29.40;71.30;;;;;;6217052;23;20008;-85
2023/10/14 12:47:56;;;;;;;20.85;12.77;;;29.40;71.00;;;;;;6213978;23;20028;-87
2023/10/14 12:50:22;;;;;;;17.67;11.75;;;29.40;71.00;;;;;;6215649;23;19997;-87
2023/10/14 12:52:56;;;;;;;19.75;12.73;;;29.30;71.00;;;;;;6216977;23;20001;-87
2023/10/14 12:55:23;;;;;;;20.73;12.70;;;29.30;71.10;;;;;;6240581;23;20004;-87
2023/10/14 12:57:49;;;;;;;24.17;13.98;;;29.10;71.00;;;;;;6216288;23;20084;-82
2023/10/14 13:00:25;;;;;;;21.73;14.45;;;29.00;71.30;;;;;;6215260;23;20355;-87
2023/10/14 13:02:53;;;;;;;17.73;12.60;;;28.80;71.60;;;;;;6216567;23;20055;-88
2023/10/14 13:05:26;;;;;;;18.33;12.95;;;28.60;72.00;;;;;;6216412;23;20011;-88
2023/10/14 13:07:53;;;;;;;20.70;13.25;;;28.50;72.10;;;;;;6216531;23;20013;-87
2023/10/14 13:10:20;;;;;;;16.58;11.00;;;28.30;72.40;;;;;;6216174;23;20001;-87
2023/10/14 13:12:53;;;;;;;20.55;12.75;;;28.20;72.90;;;;;;6214968;23;20005;-87
2023/10/14 13:15:28;;;;;;;18.35;12.70;;;28.10;72.90;;;;;;6216990;23;20406;-87
2023/10/14 13:17:59;;;;;;;17.55;11.60;;;28.00;73.00;;;;;;6216566;23;20001;-88
2023/10/14 13:20:30;;;;;;;15.73;11.55;;;27.90;73.30;;;;;;6216340;23;20001;-81
2023/10/14 13:23:04;;;;;;;20.00;12.07;;;27.80;73.60;;;;;;6215871;23;20407;-81
2023/10/14 13:25:37;;;;;;;16.40;11.00;;;27.60;73.60;;;;;;6215664;23;20481;-81
2023/10/14 13:28:13;;;;;;;24.73;13.35;;;27.50;73.90;;;;;;6216019;23;19996;-81
2023/10/14 13:30:47;;;;;;;17.10;11.80;;;27.40;74.20;;;;;;6214706;23;20029;-81
2023/10/14 13:33:16;;;;;;;20.15;11.90;;;27.30;74.50;;;;;;6216417;23;20071;-86
2023/10/14 13:35:45;;;;;;;20.92;12.38;;;27.30;74.70;;;;;;6216960;23;20071;-87
2023/10/14 13:38:14;;;;;;;20.30;14.38;;;27.30;75.00;;;;;;6216322;23;20001;-87